Etusivu
METAR-TAF:

METAR-TAF

Lentoasemat :

Öljynporauslautta

Norne Fpso, Norja

Leveyspiiri: 66-01-48N, Pituuspiiri: 008-04-48E, korkeus merenpinnasta: 10 m

Tämänhetkinen sää

Tämä raportti tehtiin 51 minuuttia sitten, kello 12.50 UTC
Tuuli 33 kn etelästä/lounaasta
Lämpötila 9°C
Kosteus 93%
Ilmanpaine 1011 hPa
Näkyvyys: 2500 m
Hajonneita pilviä 1000 ft:n korkeudessa
Pilvistä 1500 ft:n korkeudessa
heikkoa sadetta, utua

METAR: ENNE 201250Z 21033KT 2500 -RA BR BKN010 OVC015 09/08 Q1011 W///S6

Aika: 15:41 (13:41 UTC)

Sääennuste

Tämä raportti tehtiin 50 minuuttia sitten, kello 12.51 UTC
Ennuste voimassa 20. päivästä klo 12 UTC - 20. päivään klo 17 UTC
Tuuli 35 kn etelästä/lounaasta
Näkyvyys 10 km tai enemmän
Hajonneita pilviä 2000 ft:n korkeudessa
heikkoa sadetta
Ajoittain
20. päivästä klo 12 UTC - 20. päivään klo 17 UTC
Näkyvyys: 2000 m
Hajonneita pilviä 800 ft:n korkeudessa
utua

TAF: ENNE 201251Z 2012/2017 20035KT 9999 -RA BKN020 TEMPO 2012/2017 2000 BR BKN008

Säähavainnot ja -ennusteet yli 4000 lentoasemalta (METAR- ja TAF-raportit).

Käytössä olevat sääasemat on merkitty karttaan keltaisilla ja punaisilla pisteillä.

Aseta hiiri pisteen päälle nähdäksesi sääaseman nimen.

Klikkaa sitten nähdäksesi säähavainnot ja -ennusteet.

Kartan vaihtaminen: klikkaa mustalla rastilla varustettuja vihreitä pisteitä, niin voit zoomata sisään; viivalla varustettua vihreää pistettä, niin voit zoomata ulos tai vihreitä nuolia, niin pääset viereisille kartoille.


METAR-TAF: